首页
METAR-TAF:

METAR-TAF

机场 :

沃罗涅日, 俄罗斯

纬度: 51-39N, 经度: 039-15E, 海拔: 154米

当前天气观测

该预报发布于32分钟前的02:30 UTC
风速10节,风向西
温度 0°C
湿度 80%
气压 1022 hPa
能见度10公里或以上
阴天层高于2200英尺

METAR: UUOO 210230Z 27005MPS 9999 OVC022 00/M03 Q1022 R30/190050 NOSIG RMK QFE753

时间: 06:02 (03:02 UTC)

预报

该预报发布于1小时和3分钟前的01:59 UTC
预报有效从21日的 03点(UTC)到 21日的 12点(UTC)
风速16节,风向西
能見度: 7000
阴天层高于1500英尺
小雪, 雨

TAF: UUOO 210159Z 2103/2112 28008MPS 7000 -SNRA OVC015

超过4000个机场的气象观测和天气预报(METAR&TAF报告)。

可查询的气象台以黄色和红色小点在地图上表示。

将鼠标移到小点上方,可查看气象台名称。

然后点击查看天气观测和预报。

如需切换地图:点击带黑十字的绿色按钮放大地图;点击带横线的绿色按钮缩小地图;或者点击绿色箭头查看邻近地区的地图。


METAR-TAF: